Time;durP1;ratioP1;P1;durP2;ratioP2;P2;SDS_P1;SDS_P2;PMS_P1;PMS_P2;Temp;Humidity;BMP_temperature;BMP_pressure;BME280_temperature;BME280_humidity;BME280_pressure;Samples;Min_cycle;Max_cycle;Signal;HPM_P1;HPM_P2
2023/09/22 00:00:14;;;;;;;8.32;5.30;;;;;;;;;;2595626;22;19999;-90
2023/09/22 00:01:14;;;;;;;8.52;5.57;;;;;;;;;;2595519;22;20415;-90
2023/09/22 00:02:14;;;;;;;7.40;4.35;;;;;;;;;;2593877;22;20030;-90
2023/09/22 00:03:15;;;;;;;8.60;5.22;;;;;;;;;;2593996;22;20007;-90
2023/09/22 00:04:15;;;;;;;8.55;5.30;;;;;;;;;;2595295;22;20031;-92
2023/09/22 00:05:16;;;;;;;11.50;5.72;;;;;;;;;;2583235;23;20086;-93
2023/09/22 00:06:17;;;;;;;7.50;5.07;;;;;;;;;;2584353;23;19996;-90
2023/09/22 00:07:18;;;;;;;8.32;4.82;;;;;;;;;;2598096;22;20360;-90
2023/09/22 00:08:19;;;;;;;6.15;5.55;;;;;;;;;;2609334;22;20003;-90
2023/09/22 00:09:19;;;;;;;7.22;5.65;;;;;;;;;;2593928;22;20020;-90
2023/09/22 00:10:20;;;;;;;9.95;5.65;;;;;;;;;;2595195;22;20070;-89
2023/09/22 00:11:20;;;;;;;8.43;5.65;;;;;;;;;;2608791;22;20439;-90
2023/09/22 00:12:23;;;;;;;9.63;5.53;;;;;;;;;;2593693;22;20004;-89
2023/09/22 00:13:24;;;;;;;8.80;5.72;;;;;;;;;;2595300;22;20030;-90
2023/09/22 00:14:24;;;;;;;8.65;4.97;;;;;;;;;;2593894;22;20074;-90
2023/09/22 00:15:27;;;;;;;9.00;5.40;;;;;;;;;;2594645;22;20463;-91
2023/09/22 00:16:27;;;;;;;11.30;5.55;;;;;;;;;;2607890;22;19999;-91
2023/09/22 00:17:28;;;;;;;8.07;5.70;;;;;;;;;;2593701;22;20011;-90
2023/09/22 00:18:31;;;;;;;7.15;4.82;;;;;;;;;;2573847;23;20150;-90
2023/09/22 00:19:31;;;;;;;11.75;5.65;;;;;;;;;;2594466;22;20002;-90
2023/09/22 00:20:32;;;;;;;6.68;4.85;;;;;;;;;;2606842;22;20045;-90
2023/09/22 00:21:32;;;;;;;8.57;5.38;;;;;;;;;;2593848;22;19996;-90
2023/09/22 00:22:32;;;;;;;7.57;5.07;;;;;;;;;;2581169;23;20094;-90
2023/09/22 00:23:33;;;;;;;9.88;5.22;;;;;;;;;;2581215;23;20004;-90
2023/09/22 00:24:33;;;;;;;7.82;4.88;;;;;;;;;;2581142;23;20000;-90
2023/09/22 00:25:34;;;;;;;10.05;5.00;;;;;;;;;;2581149;23;20469;-90
2023/09/22 00:26:34;;;;;;;15.98;5.30;;;;;;;;;;2581170;23;20088;-90
2023/09/22 00:27:35;;;;;;;9.45;5.45;;;;;;;;;;2593913;22;20034;-90
2023/09/22 00:28:36;;;;;;;6.70;4.85;;;;;;;;;;2611635;22;19995;-90
2023/09/22 00:29:36;;;;;;;10.23;5.00;;;;;;;;;;2611636;22;19995;-89
2023/09/22 00:30:37;;;;;;;9.50;5.10;;;;;;;;;;2593714;22;20003;-89
2023/09/22 00:31:37;;;;;;;9.65;5.05;;;;;;;;;;2597800;22;19999;-89
2023/09/22 00:32:39;;;;;;;9.85;4.85;;;;;;;;;;2593770;22;20002;-89
2023/09/22 00:33:39;;;;;;;7.85;5.10;;;;;;;;;;2581058;22;20000;-89
2023/09/22 00:34:40;;;;;;;12.23;5.50;;;;;;;;;;2597774;22;19999;-90
2023/09/22 00:35:40;;;;;;;5.63;4.65;;;;;;;;;;2593327;22;20011;-90
2023/09/22 00:36:41;;;;;;;7.47;5.07;;;;;;;;;;2597791;22;20045;-91
2023/09/22 00:37:41;;;;;;;10.07;5.43;;;;;;;;;;2593793;22;20525;-91
2023/09/22 00:38:41;;;;;;;9.65;5.32;;;;;;;;;;2581540;23;20000;-90
2023/09/22 00:39:42;;;;;;;7.47;5.43;;;;;;;;;;2593741;22;19996;-90
2023/09/22 00:40:43;;;;;;;7.13;5.22;;;;;;;;;;2581151;23;20232;-90
2023/09/22 00:41:43;;;;;;;9.70;4.97;;;;;;;;;;2580512;23;20012;-89
2023/09/22 00:42:44;;;;;;;13.10;5.43;;;;;;;;;;2597265;22;19995;-91
2023/09/22 00:43:44;;;;;;;11.93;5.10;;;;;;;;;;2593608;22;19999;-91
2023/09/22 00:44:45;;;;;;;7.22;5.20;;;;;;;;;;2597623;22;20337;-91
2023/09/22 00:45:48;;;;;;;9.80;5.07;;;;;;;;;;2593540;22;20050;-90
2023/09/22 00:46:48;;;;;;;8.38;4.93;;;;;;;;;;2581601;22;20095;-89
2023/09/22 00:47:49;;;;;;;9.55;5.18;;;;;;;;;;2580999;23;20000;-89
2023/09/22 00:48:51;;;;;;;8.77;5.70;;;;;;;;;;2581061;23;20066;-89
2023/09/22 00:49:53;;;;;;;8.88;4.90;;;;;;;;;;2593765;22;20000;-89
2023/09/22 00:50:55;;;;;;;10.77;5.15;;;;;;;;;;2597015;22;20096;-90
2023/09/22 00:51:56;;;;;;;10.27;5.50;;;;;;;;;;2593575;22;20012;-89
2023/09/22 00:52:57;;;;;;;10.02;4.90;;;;;;;;;;2593612;22;20061;-89
2023/09/22 00:53:58;;;;;;;9.07;4.85;;;;;;;;;;2595200;22;20008;-89
2023/09/22 00:54:59;;;;;;;8.68;5.68;;;;;;;;;;2584300;22;20565;-89
2023/09/22 00:56:00;;;;;;;10.32;4.88;;;;;;;;;;2598747;22;20003;-90
2023/09/22 00:57:04;;;;;;;7.05;5.18;;;;;;;;;;2593576;22;20035;-90
2023/09/22 00:58:04;;;;;;;9.63;5.07;;;;;;;;;;2596800;22;19999;-90
2023/09/22 00:59:06;;;;;;;9.70;5.18;;;;;;;;;;2593748;22;20424;-90
2023/09/22 01:00:08;;;;;;;9.60;5.22;;;;;;;;;;2596173;22;20448;-90
2023/09/22 01:01:08;;;;;;;7.28;4.60;;;;;;;;;;2593981;22;20464;-90
2023/09/22 01:02:11;;;;;;;11.82;5.20;;;;;;;;;;2595740;22;20023;-90
2023/09/22 01:03:11;;;;;;;11.30;6.07;;;;;;;;;;2609067;22;20003;-89
2023/09/22 01:04:13;;;;;;;7.85;5.32;;;;;;;;;;2609119;22;19999;-89
2023/09/22 01:05:13;;;;;;;15.15;5.95;;;;;;;;;;2593783;22;20016;-89
2023/09/22 01:06:14;;;;;;;11.98;5.35;;;;;;;;;;2580973;23;20342;-90
2023/09/22 01:07:14;;;;;;;7.88;5.22;;;;;;;;;;2581095;22;20013;-89
2023/09/22 01:08:15;;;;;;;9.35;4.97;;;;;;;;;;2594102;22;19999;-89
2023/09/22 01:09:16;;;;;;;8.23;5.65;;;;;;;;;;2608895;22;19999;-90
2023/09/22 01:10:16;;;;;;;8.43;4.90;;;;;;;;;;2593639;22;20037;-89
2023/09/22 01:11:17;;;;;;;8.25;4.72;;;;;;;;;;2595273;22;20000;-90
2023/09/22 01:12:17;;;;;;;7.43;5.35;;;;;;;;;;2609022;22;20070;-90
2023/09/22 01:13:18;;;;;;;10.10;5.22;;;;;;;;;;2608536;22;19999;-90
2023/09/22 01:14:20;;;;;;;10.90;5.30;;;;;;;;;;2609336;22;20027;-92
2023/09/22 01:15:21;;;;;;;8.30;5.28;;;;;;;;;;2594401;22;20154;-93
2023/09/22 01:16:21;;;;;;;9.27;5.15;;;;;;;;;;2595559;22;20345;-94
2023/09/22 01:17:23;;;;;;;9.57;5.50;;;;;;;;;;2594238;22;20081;-92
2023/09/22 01:18:23;;;;;;;7.00;4.88;;;;;;;;;;2581894;22;20019;-93
2023/09/22 01:19:25;;;;;;;10.93;4.95;;;;;;;;;;2581771;23;20020;-92
2023/09/22 01:20:25;;;;;;;7.93;4.93;;;;;;;;;;2594453;22;19999;-93
2023/09/22 01:21:30;;;;;;;8.48;5.50;;;;;;;;;;2595380;22;20010;-92
2023/09/22 01:22:33;;;;;;;7.85;5.35;;;;;;;;;;2608703;22;20027;-92
2023/09/22 01:23:34;;;;;;;10.27;5.32;;;;;;;;;;2594274;22;20433;-93
2023/09/22 01:24:34;;;;;;;8.93;5.35;;;;;;;;;;2594305;22;20057;-92
2023/09/22 01:25:36;;;;;;;7.28;5.40;;;;;;;;;;2594344;22;20007;-93
2023/09/22 01:26:38;;;;;;;7.45;5.20;;;;;;;;;;2594398;22;19999;-93
2023/09/22 01:27:38;;;;;;;9.40;4.97;;;;;;;;;;2594373;22;20414;-92
2023/09/22 01:28:39;;;;;;;8.68;5.70;;;;;;;;;;2596359;22;20006;-92
2023/09/22 01:29:40;;;;;;;7.57;5.00;;;;;;;;;;2604560;22;20019;-92
2023/09/22 01:30:40;;;;;;;7.57;5.68;;;;;;;;;;2605781;22;20082;-93
2023/09/22 01:31:42;;;;;;;9.25;5.50;;;;;;;;;;2593760;22;20000;-92
2023/09/22 01:32:43;;;;;;;10.15;5.65;;;;;;;;;;2594549;22;20056;-92
2023/09/22 01:33:45;;;;;;;9.48;5.18;;;;;;;;;;2594639;22;19999;-93
2023/09/22 01:34:46;;;;;;;11.60;5.30;;;;;;;;;;2606993;22;19992;-92
2023/09/22 01:35:46;;;;;;;7.60;5.18;;;;;;;;;;2606827;22;19991;-93
2023/09/22 01:36:47;;;;;;;7.45;4.97;;;;;;;;;;2610749;22;19988;-92
2023/09/22 01:37:58;;;;;;;8.52;5.68;;;;;;;;;;2603660;22;20010;-92
2023/09/22 01:38:59;;;;;;;7.95;5.18;;;;;;;;;;2589452;22;20004;-91
2023/09/22 01:40:00;;;;;;;11.80;5.93;;;;;;;;;;2584020;22;20004;-92
2023/09/22 01:41:01;;;;;;;8.00;5.97;;;;;;;;;;2583457;22;20004;-91
2023/09/22 01:42:01;;;;;;;8.48;5.82;;;;;;;;;;2595061;22;20007;-92
2023/09/22 01:43:02;;;;;;;8.43;5.22;;;;;;;;;;2582090;23;20011;-92
2023/09/22 01:44:02;;;;;;;7.68;5.65;;;;;;;;;;2594401;22;20011;-92
2023/09/22 01:45:04;;;;;;;8.20;5.28;;;;;;;;;;2594330;22;20018;-93
2023/09/22 01:46:06;;;;;;;9.98;5.35;;;;;;;;;;2594711;22;20023;-90
2023/09/22 01:47:08;;;;;;;10.95;5.47;;;;;;;;;;2593632;22;20399;-90
2023/09/22 01:48:09;;;;;;;8.93;5.60;;;;;;;;;;2581067;22;20000;-89
2023/09/22 01:49:10;;;;;;;8.23;5.38;;;;;;;;;;2595803;22;20436;-89
2023/09/22 01:50:10;;;;;;;7.55;5.15;;;;;;;;;;2609209;22;19996;-89
2023/09/22 01:51:10;;;;;;;7.32;5.57;;;;;;;;;;2609293;22;20440;-88
2023/09/22 01:52:11;;;;;;;8.90;5.60;;;;;;;;;;2611162;22;20003;-89
2023/09/22 01:53:11;;;;;;;13.07;5.85;;;;;;;;;;2596517;22;20012;-90
2023/09/22 01:54:11;;;;;;;9.50;5.68;;;;;;;;;;2597721;22;20000;-89
2023/09/22 01:55:12;;;;;;;7.00;5.32;;;;;;;;;;2593476;22;20100;-89
2023/09/22 01:56:12;;;;;;;10.95;6.15;;;;;;;;;;2594019;22;20299;-91
2023/09/22 01:57:13;;;;;;;16.80;6.03;;;;;;;;;;2594697;22;20013;-92
2023/09/22 01:58:13;;;;;;;8.90;5.50;;;;;;;;;;2594068;22;20011;-91
2023/09/22 01:59:14;;;;;;;8.48;5.57;;;;;;;;;;2594636;22;20432;-92
2023/09/22 02:00:15;;;;;;;9.88;6.00;;;;;;;;;;2608906;22;20022;-92
2023/09/22 02:01:20;;;;;;;8.15;6.07;;;;;;;;;;2594847;22;20086;-92
2023/09/22 02:02:20;;;;;;;8.10;6.05;;;;;;;;;;2582515;22;20012;-92
2023/09/22 02:03:21;;;;;;;9.65;6.15;;;;;;;;;;2594775;22;20019;-92
2023/09/22 02:04:21;;;;;;;10.65;6.20;;;;;;;;;;2594933;22;20304;-91
2023/09/22 02:05:22;;;;;;;9.55;5.85;;;;;;;;;;2582094;23;20062;-92
2023/09/22 02:06:23;;;;;;;8.45;5.88;;;;;;;;;;2594793;22;20090;-92
2023/09/22 02:07:23;;;;;;;9.25;6.55;;;;;;;;;;2594502;22;20018;-92
2023/09/22 02:08:23;;;;;;;9.18;5.80;;;;;;;;;;2581745;23;20114;-91
2023/09/22 02:09:24;;;;;;;7.93;6.05;;;;;;;;;;2595256;22;20052;-91
2023/09/22 02:10:24;;;;;;;10.77;6.47;;;;;;;;;;2609037;22;20070;-91
2023/09/22 02:11:25;;;;;;;11.30;6.43;;;;;;;;;;2608884;22;20056;-91
2023/09/22 02:12:25;;;;;;;9.75;6.10;;;;;;;;;;2594434;22;20053;-92
2023/09/22 02:13:25;;;;;;;9.15;6.50;;;;;;;;;;2581885;23;20059;-92
2023/09/22 02:14:26;;;;;;;8.77;6.22;;;;;;;;;;2581762;23;20066;-91
2023/09/22 02:15:26;;;;;;;9.45;6.32;;;;;;;;;;2595142;22;20066;-91
2023/09/22 02:16:27;;;;;;;12.45;7.00;;;;;;;;;;2593599;22;20008;-90
2023/09/22 02:17:27;;;;;;;8.98;6.80;;;;;;;;;;2580683;23;20020;-90
2023/09/22 02:18:27;;;;;;;10.75;6.80;;;;;;;;;;2581090;23;20425;-89
2023/09/22 02:19:29;;;;;;;13.00;7.20;;;;;;;;;;2581166;23;20030;-90
2023/09/22 02:20:30;;;;;;;12.95;7.00;;;;;;;;;;2581036;22;20014;-90
2023/09/22 02:21:30;;;;;;;11.82;6.75;;;;;;;;;;2594467;22;20452;-91
2023/09/22 02:22:31;;;;;;;11.68;7.15;;;;;;;;;;2607929;22;19999;-91
2023/09/22 02:23:32;;;;;;;11.25;7.03;;;;;;;;;;2593566;22;20065;-90
2023/09/22 02:24:32;;;;;;;12.05;6.95;;;;;;;;;;2580965;23;20495;-91
2023/09/22 02:25:34;;;;;;;11.23;7.45;;;;;;;;;;2580665;23;20004;-89
2023/09/22 02:26:34;;;;;;;9.93;7.22;;;;;;;;;;2580816;22;20000;-91
2023/09/22 02:27:36;;;;;;;9.55;7.05;;;;;;;;;;2580801;23;20011;-91
2023/09/22 02:28:37;;;;;;;12.10;7.35;;;;;;;;;;2580712;23;20011;-91
2023/09/22 02:29:37;;;;;;;11.50;6.93;;;;;;;;;;2597431;22;20076;-90
2023/09/22 02:30:39;;;;;;;11.98;7.40;;;;;;;;;;2613982;22;20018;-90
2023/09/22 02:31:39;;;;;;;10.95;7.35;;;;;;;;;;2595477;22;20050;-90
2023/09/22 02:32:41;;;;;;;9.77;7.75;;;;;;;;;;2581535;23;20350;-91
2023/09/22 02:33:41;;;;;;;9.82;7.28;;;;;;;;;;2597583;22;19999;-90
2023/09/22 02:34:41;;;;;;;13.57;7.25;;;;;;;;;;2593623;22;20000;-91
2023/09/22 02:35:42;;;;;;;11.18;7.60;;;;;;;;;;2597369;22;20006;-90
2023/09/22 02:36:43;;;;;;;8.75;6.90;;;;;;;;;;2611566;22;20026;-90
2023/09/22 02:37:44;;;;;;;9.25;7.47;;;;;;;;;;2611595;22;20019;-90
2023/09/22 02:38:45;;;;;;;10.68;6.65;;;;;;;;;;2611683;22;19998;-90
2023/09/22 02:39:45;;;;;;;10.05;7.53;;;;;;;;;;2594291;22;20014;-89
2023/09/22 02:40:46;;;;;;;9.20;7.68;;;;;;;;;;2581453;23;20027;-90
2023/09/22 02:41:46;;;;;;;9.88;7.50;;;;;;;;;;2566305;22;20538;-89
2023/09/22 02:42:47;;;;;;;8.60;7.07;;;;;;;;;;2598452;22;20019;-92
2023/09/22 02:43:47;;;;;;;10.15;6.50;;;;;;;;;;2595042;22;20000;-92
2023/09/22 02:44:48;;;;;;;8.82;7.22;;;;;;;;;;2594927;22;20006;-92
2023/09/22 02:45:50;;;;;;;9.90;7.43;;;;;;;;;;2595244;22;20078;-95
2023/09/22 02:46:51;;;;;;;8.35;7.38;;;;;;;;;;2595247;22;20074;-93
2023/09/22 02:47:53;;;;;;;8.98;7.20;;;;;;;;;;2582760;23;20035;-92
2023/09/22 02:48:53;;;;;;;13.48;7.28;;;;;;;;;;2582787;22;20000;-93
2023/09/22 02:49:56;;;;;;;13.20;7.80;;;;;;;;;;2582405;23;20091;-92
2023/09/22 02:50:57;;;;;;;9.82;7.07;;;;;;;;;;2582748;22;20008;-93
2023/09/22 02:51:57;;;;;;;11.70;6.82;;;;;;;;;;2582442;23;20450;-93
2023/09/22 02:52:58;;;;;;;11.07;7.40;;;;;;;;;;2594788;22;20004;-93
2023/09/22 02:53:58;;;;;;;10.35;7.22;;;;;;;;;;2594920;22;20000;-94
2023/09/22 02:54:58;;;;;;;12.30;6.65;;;;;;;;;;2594778;22;20023;-93
2023/09/22 02:56:08;;;;;;;7.68;6.88;;;;;;;;;;2582511;22;20130;-93
2023/09/22 02:57:08;;;;;;;10.38;7.13;;;;;;;;;;2596165;22;20008;-91
2023/09/22 02:58:09;;;;;;;10.82;7.53;;;;;;;;;;2608975;22;20443;-91
2023/09/22 02:59:10;;;;;;;13.25;7.47;;;;;;;;;;2609760;22;20412;-91
2023/09/22 03:00:14;;;;;;;11.23;7.60;;;;;;;;;;2593771;22;20471;-91
2023/09/22 03:01:14;;;;;;;8.05;6.75;;;;;;;;;;2582201;22;20008;-91
2023/09/22 03:02:15;;;;;;;11.45;7.50;;;;;;;;;;2581609;23;20007;-91
2023/09/22 03:03:16;;;;;;;11.35;7.18;;;;;;;;;;2595463;22;20022;-91
2023/09/22 03:04:16;;;;;;;9.27;7.47;;;;;;;;;;2609515;22;19995;-91
2023/09/22 03:05:17;;;;;;;9.18;7.20;;;;;;;;;;2594374;22;20033;-92
2023/09/22 03:06:19;;;;;;;9.40;6.97;;;;;;;;;;2594358;22;20004;-91
2023/09/22 03:07:20;;;;;;;10.85;7.63;;;;;;;;;;2595636;22;20027;-90
2023/09/22 03:08:20;;;;;;;9.00;7.00;;;;;;;;;;2141852;22;10448749;-90
2023/09/22 03:09:21;;;;;;;9.43;7.82;;;;;;;;;;2581549;22;20350;-91
2023/09/22 03:10:21;;;;;;;12.68;7.38;;;;;;;;;;2581069;23;20012;-89
2023/09/22 03:11:22;;;;;;;10.70;7.50;;;;;;;;;;2594140;22;20003;-91
2023/09/22 03:12:22;;;;;;;11.30;8.00;;;;;;;;;;2581499;22;20008;-91
2023/09/22 03:13:22;;;;;;;10.52;7.03;;;;;;;;;;2581292;23;20038;-91
2023/09/22 03:14:23;;;;;;;13.40;7.68;;;;;;;;;;2581365;23;20342;-91
2023/09/22 03:15:24;;;;;;;11.20;8.10;;;;;;;;;;2581394;23;20000;-91
2023/09/22 03:16:26;;;;;;;12.15;7.40;;;;;;;;;;2581461;23;20008;-91
2023/09/22 03:17:27;;;;;;;10.48;7.35;;;;;;;;;;2581765;22;20012;-91
2023/09/22 03:18:28;;;;;;;13.63;7.60;;;;;;;;;;2581653;23;20004;-91
2023/09/22 03:19:28;;;;;;;10.18;7.10;;;;;;;;;;2581221;23;20400;-90
2023/09/22 03:20:29;;;;;;;10.90;8.07;;;;;;;;;;2581642;23;20012;-90
2023/09/22 03:21:29;;;;;;;12.35;8.55;;;;;;;;;;2581508;23;20035;-90
2023/09/22 03:22:29;;;;;;;10.20;7.03;;;;;;;;;;2594547;22;20026;-90
2023/09/22 03:23:30;;;;;;;12.25;8.00;;;;;;;;;;2148753;22;10288229;-91
2023/09/22 03:24:30;;;;;;;9.60;7.97;;;;;;;;;;2594544;22;20421;-90
2023/09/22 03:25:31;;;;;;;7.82;6.78;;;;;;;;;;2607184;22;20010;-89
2023/09/22 03:26:31;;;;;;;;;;;;;;;;;;2157773;22;10337385;-91
2023/09/22 03:27:35;;;;;;;9.60;6.87;;;;;;;;;;2608330;22;19910;-89
2023/09/22 03:28:35;;;;;;;12.40;8.10;;;;;;;;;;2607563;22;20004;-90
2023/09/22 03:29:36;;;;;;;12.77;7.97;;;;;;;;;;2611802;22;20183;-89
2023/09/22 03:30:36;;;;;;;9.77;7.63;;;;;;;;;;2594475;22;20053;-90
2023/09/22 03:31:38;;;;;;;12.30;7.45;;;;;;;;;;2598497;22;20405;-90
2023/09/22 03:32:39;;;;;;;23.85;21.42;;;;;;;;;;2594172;22;20043;-90
2023/09/22 03:33:40;;;;;;;13.90;11.65;;;;;;;;;;2581664;22;19992;-90
2023/09/22 03:34:40;;;;;;;14.50;9.55;;;;;;;;;;2594167;22;20334;-90
2023/09/22 03:35:41;;;;;;;15.05;9.30;;;;;;;;;;2581607;23;20508;-90
2023/09/22 03:36:41;;;;;;;13.82;8.55;;;;;;;;;;2594101;22;20007;-90
2023/09/22 03:37:42;;;;;;;10.23;8.05;;;;;;;;;;2594105;22;20372;-90
2023/09/22 03:38:52;;;;;;;10.52;7.95;;;;;;;;;;2596795;22;19991;-89
2023/09/22 03:39:56;;;;;;;8.43;6.93;;;;;;;;;;2597115;22;20528;-89
2023/09/22 03:41:00;;;;;;;11.93;7.40;;;;;;;;;;2595165;22;20142;-90
2023/09/22 03:42:01;;;;;;;13.15;8.75;;;;;;;;;;2594213;22;20008;-90
2023/09/22 03:43:03;;;;;;;11.20;7.75;;;;;;;;;;2581349;23;20012;-90
2023/09/22 03:44:04;;;;;;;9.52;7.43;;;;;;;;;;2581621;22;20070;-90
2023/09/22 03:45:06;;;;;;;12.70;8.18;;;;;;;;;;2583658;23;20476;-90
2023/09/22 03:46:08;;;;;;;11.57;8.43;;;;;;;;;;2596408;22;20009;-89
2023/09/22 03:47:08;;;;;;;11.50;7.90;;;;;;;;;;2607091;22;20100;-89
2023/09/22 03:48:08;;;;;;;13.23;8.02;;;;;;;;;;2609223;22;20407;-89
2023/09/22 03:49:09;;;;;;;9.10;7.03;;;;;;;;;;2594283;22;20011;-90
2023/09/22 03:50:10;;;;;;;9.07;8.02;;;;;;;;;;2594246;22;20003;-90
2023/09/22 03:51:10;;;;;;;10.23;7.47;;;;;;;;;;2582115;22;20027;-89
2023/09/22 03:52:12;;;;;;;8.50;7.28;;;;;;;;;;2596801;22;20429;-89
2023/09/22 03:53:13;;;;;;;10.60;6.63;;;;;;;;;;2594965;22;20012;-89
2023/09/22 03:54:13;;;;;;;11.38;7.72;;;;;;;;;;2582053;23;20426;-90
2023/09/22 03:55:14;;;;;;;10.45;7.72;;;;;;;;;;2596149;22;20061;-90
2023/09/22 03:56:14;;;;;;;11.85;7.50;;;;;;;;;;2594034;22;20016;-90
2023/09/22 03:57:16;;;;;;;12.57;8.35;;;;;;;;;;2596213;22;19999;-90
2023/09/22 03:58:19;;;;;;;13.13;8.02;;;;;;;;;;2594493;22;20008;-91
2023/09/22 03:59:19;;;;;;;17.55;7.97;;;;;;;;;;2595892;22;20082;-90
2023/09/22 04:00:27;;;;;;;9.82;7.82;;;;;;;;;;2609077;22;20034;-90
2023/09/22 04:01:28;;;;;;;11.93;7.03;;;;;;;;;;2594811;22;20110;-90
2023/09/22 04:02:29;;;;;;;11.48;8.15;;;;;;;;;;2594572;22;20014;-90
2023/09/22 04:03:30;;;;;;;9.68;7.72;;;;;;;;;;2594119;22;20369;-91
2023/09/22 04:04:30;;;;;;;11.00;8.35;;;;;;;;;;2594713;22;20034;-90
2023/09/22 04:05:30;;;;;;;10.27;7.68;;;;;;;;;;2594396;22;20012;-90
2023/09/22 04:06:31;;;;;;;8.93;6.68;;;;;;;;;;2597014;22;19999;-90
2023/09/22 04:07:31;;;;;;;10.13;7.93;;;;;;;;;;2596634;22;20643;-90
2023/09/22 04:08:32;;;;;;;10.82;8.35;;;;;;;;;;2595553;22;20461;-90
2023/09/22 04:09:32;;;;;;;12.15;8.30;;;;;;;;;;2594258;22;20057;-90
2023/09/22 04:10:33;;;;;;;13.10;7.20;;;;;;;;;;2594389;22;20078;-91
2023/09/22 04:11:34;;;;;;;11.43;8.30;;;;;;;;;;2594021;22;20004;-90
2023/09/22 04:12:35;;;;;;;11.68;7.32;;;;;;;;;;2581504;22;20012;-90
2023/09/22 04:13:36;;;;;;;13.52;8.88;;;;;;;;;;2581626;23;20004;-90
2023/09/22 04:14:37;;;;;;;11.48;7.78;;;;;;;;;;2598217;22;20034;-90
2023/09/22 04:15:38;;;;;;;12.57;8.30;;;;;;;;;;2612012;22;19999;-90
2023/09/22 04:16:39;;;;;;;11.93;8.02;;;;;;;;;;2611880;22;20289;-91
2023/09/22 04:17:39;;;;;;;11.23;8.02;;;;;;;;;;2594125;22;20071;-91
2023/09/22 04:18:40;;;;;;;12.55;8.18;;;;;;;;;;2582475;23;19992;-93
2023/09/22 04:19:40;;;;;;;11.20;8.45;;;;;;;;;;2594986;22;20106;-93
2023/09/22 04:20:49;;;;;;;11.25;8.75;;;;;;;;;;2598808;22;20041;-93
2023/09/22 04:21:54;;;;;;;14.05;7.32;;;;;;;;;;2596849;22;19995;-92
2023/09/22 04:22:56;;;;;;;15.70;8.52;;;;;;;;;;2610707;22;20457;-93
2023/09/22 04:23:59;;;;;;;11.95;8.00;;;;;;;;;;2611539;22;20003;-92
2023/09/22 04:25:01;;;;;;;10.90;8.05;;;;;;;;;;2595289;22;20042;-93
2023/09/22 04:26:09;;;;;;;12.52;7.55;;;;;;;;;;2598331;22;20007;-93
2023/09/22 04:27:09;;;;;;;10.00;6.30;;;;;;;;;;2595331;22;20026;-92
2023/09/22 04:28:17;;;;;;;9.93;7.88;;;;;;;;;;2594802;22;20014;-93
2023/09/22 04:29:17;;;;;;;9.23;6.68;;;;;;;;;;2585370;22;20008;-92
2023/09/22 04:30:20;;;;;;;12.30;7.88;;;;;;;;;;2582447;22;20457;-93
2023/09/22 04:31:23;;;;;;;9.60;7.20;;;;;;;;;;2596995;22;20226;-93
2023/09/22 04:32:24;;;;;;;12.00;7.00;;;;;;;;;;2595072;22;20080;-92
2023/09/22 04:33:24;;;;;;;9.38;7.10;;;;;;;;;;2582899;23;20008;-92
2023/09/22 04:34:24;;;;;;;9.85;7.15;;;;;;;;;;2583137;23;20035;-92
2023/09/22 04:35:25;;;;;;;10.60;6.38;;;;;;;;;;2595553;22;20008;-92
2023/09/22 04:36:25;;;;;;;12.95;7.10;;;;;;;;;;2595072;22;20090;-91
2023/09/22 04:37:26;;;;;;;8.93;6.63;;;;;;;;;;2596331;22;20018;-91
2023/09/22 04:38:26;;;;;;;10.95;7.68;;;;;;;;;;2595192;22;20439;-92
2023/09/22 04:39:26;;;;;;;16.50;6.95;;;;;;;;;;2582608;23;20004;-92
2023/09/22 04:40:36;;;;;;;13.25;7.95;;;;;;;;;;2596237;22;20004;-93
2023/09/22 04:41:37;;;;;;;9.57;6.97;;;;;;;;;;2594631;22;20038;-91
2023/09/22 04:42:37;;;;;;;8.65;6.68;;;;;;;;;;2595058;22;20047;-92
2023/09/22 04:43:38;;;;;;;12.73;6.80;;;;;;;;;;2585968;23;19992;-91
2023/09/22 04:44:40;;;;;;;10.02;6.80;;;;;;;;;;2595295;22;20441;-91
2023/09/22 04:45:41;;;;;;;12.25;6.53;;;;;;;;;;2610989;22;19991;-89
2023/09/22 04:46:42;;;;;;;9.27;6.68;;;;;;;;;;2615371;22;19994;-91
2023/09/22 04:47:42;;;;;;;11.73;6.70;;;;;;;;;;2623525;22;20034;-89
2023/09/22 04:48:42;;;;;;;6.82;6.03;;;;;;;;;;2623540;22;19984;-89
2023/09/22 04:49:43;;;;;;;10.50;7.30;;;;;;;;;;2605937;22;20018;-89
2023/09/22 04:50:52;;;;;;;8.88;6.43;;;;;;;;;;2592967;22;19996;-90
2023/09/22 04:51:52;;;;;;;10.88;6.25;;;;;;;;;;2612166;22;20007;-90
2023/09/22 04:52:53;;;;;;;9.35;7.03;;;;;;;;;;2619787;22;20006;-90
2023/09/22 04:53:53;;;;;;;8.70;6.45;;;;;;;;;;2622921;22;19983;-90
2023/09/22 04:54:54;;;;;;;10.88;7.20;;;;;;;;;;2623178;22;19999;-90
2023/09/22 04:56:04;;;;;;;10.63;6.95;;;;;;;;;;2600561;22;20303;-91
2023/09/22 04:57:04;;;;;;;8.30;5.88;;;;;;;;;;2552978;22;20032;-90
2023/09/22 04:58:08;;;;;;;9.00;6.43;;;;;;;;;;2569087;23;20012;-91
2023/09/22 04:59:09;;;;;;;9.10;6.82;;;;;;;;;;2565176;23;20004;-89
2023/09/22 05:00:16;;;;;;;13.00;7.20;;;;;;;;;;2569631;23;20056;-90
2023/09/22 05:01:17;;;;;;;9.40;6.85;;;;;;;;;;2571806;23;20004;-90
2023/09/22 05:02:18;;;;;;;10.70;6.18;;;;;;;;;;2582630;22;20433;-90
2023/09/22 05:03:18;;;;;;;10.93;7.00;;;;;;;;;;2596263;22;20000;-90
2023/09/22 05:04:19;;;;;;;11.35;6.90;;;;;;;;;;2581464;23;20099;-90
2023/09/22 05:05:21;;;;;;;8.95;6.95;;;;;;;;;;2581925;23;20122;-90
2023/09/22 05:06:21;;;;;;;9.48;6.30;;;;;;;;;;2581263;23;20004;-91
2023/09/22 05:07:21;;;;;;;11.02;7.60;;;;;;;;;;2568464;23;20015;-90
2023/09/22 05:08:22;;;;;;;11.48;7.78;;;;;;;;;;2582533;23;20000;-90
2023/09/22 05:09:22;;;;;;;10.75;7.30;;;;;;;;;;2596088;22;20409;-91
2023/09/22 05:10:23;;;;;;;11.77;7.65;;;;;;;;;;2595886;22;20390;-91
2023/09/22 05:11:23;;;;;;;9.90;7.18;;;;;;;;;;2595791;22;20083;-91
2023/09/22 05:12:25;;;;;;;10.15;6.95;;;;;;;;;;2170721;23;10002451;-91
2023/09/22 05:13:26;;;;;;;8.88;6.78;;;;;;;;;;2582238;22;20654;-89
2023/09/22 05:14:26;;;;;;;8.05;6.63;;;;;;;;;;2581088;23;20019;-91
2023/09/22 05:15:27;;;;;;;9.35;7.53;;;;;;;;;;2581452;23;20043;-91
2023/09/22 05:16:27;;;;;;;13.82;7.47;;;;;;;;;;2568745;23;20012;-92
2023/09/22 05:17:28;;;;;;;12.82;7.55;;;;;;;;;;2580984;23;20091;-91
2023/09/22 05:18:28;;;;;;;8.32;6.97;;;;;;;;;;2568880;23;20019;-91
2023/09/22 05:19:29;;;;;;;9.70;7.50;;;;;;;;;;2581305;23;20028;-91
2023/09/22 05:20:31;;;;;;;10.40;7.88;;;;;;;;;;2594609;22;20084;-88
2023/09/22 05:21:32;;;;;;;11.68;7.45;;;;;;;;;;2581229;23;20011;-92
2023/09/22 05:22:32;;;;;;;13.38;9.32;;;;;;;;;;2568651;23;20009;-90
2023/09/22 05:23:33;;;;;;;12.40;7.88;;;;;;;;;;2581319;23;20008;-90
2023/09/22 05:24:33;;;;;;;14.23;7.45;;;;;;;;;;2581468;23;20425;-91
2023/09/22 05:25:43;;;;;;;11.57;8.48;;;;;;;;;;2569940;23;20005;-89
2023/09/22 05:26:43;;;;;;;13.02;7.97;;;;;;;;;;2588296;22;20328;-89
2023/09/22 05:27:44;;;;;;;12.85;7.90;;;;;;;;;;2581362;23;19999;-90
2023/09/22 05:28:45;;;;;;;11.68;7.40;;;;;;;;;;2584931;23;20396;-90
2023/09/22 05:29:45;;;;;;;10.02;7.68;;;;;;;;;;2581384;23;19996;-91
2023/09/22 05:30:46;;;;;;;10.02;6.55;;;;;;;;;;2584822;23;19992;-91
2023/09/22 05:31:46;;;;;;;12.40;8.20;;;;;;;;;;2581032;23;19996;-90
2023/09/22 05:32:47;;;;;;;10.95;6.75;;;;;;;;;;2581095;23;20461;-90
2023/09/22 05:33:48;;;;;;;18.90;16.38;;;;;;;;;;2581418;23;20067;-92
2023/09/22 05:34:51;;;;;;;9.48;8.18;;;;;;;;;;2598722;22;19992;-91
2023/09/22 05:35:52;;;;;;;10.45;7.75;;;;;;;;;;2582546;23;19999;-93
2023/09/22 05:36:52;;;;;;;13.73;7.47;;;;;;;;;;2569882;23;20370;-92
2023/09/22 05:37:53;;;;;;;9.68;7.63;;;;;;;;;;2571401;23;20050;-93
2023/09/22 05:38:53;;;;;;;8.73;6.85;;;;;;;;;;2570631;23;20004;-94
2023/09/22 05:39:54;;;;;;;13.43;7.72;;;;;;;;;;2570290;23;19996;-89
2023/09/22 05:40:54;;;;;;;8.30;6.53;;;;;;;;;;2581953;23;20002;-91
2023/09/22 05:41:54;;;;;;;8.50;7.57;;;;;;;;;;2569532;23;19999;-91
2023/09/22 05:42:55;;;;;;;13.75;8.68;;;;;;;;;;2590120;23;20055;-88
2023/09/22 05:43:56;;;;;;;12.90;8.93;;;;;;;;;;2603292;22;20014;-87
2023/09/22 05:44:56;;;;;;;14.32;9.35;;;;;;;;;;2600782;22;20345;-89
2023/09/22 05:45:57;;;;;;;11.63;8.38;;;;;;;;;;2582030;23;20040;-88
2023/09/22 05:46:58;;;;;;;11.07;8.55;;;;;;;;;;2586949;23;20000;-87
2023/09/22 05:47:59;;;;;;;11.93;7.53;;;;;;;;;;2597467;22;20011;-90
2023/09/22 05:48:59;;;;;;;8.32;7.43;;;;;;;;;;2581321;23;20422;-90
2023/09/22 05:50:02;;;;;;;10.45;7.68;;;;;;;;;;2581078;23;20003;-90
2023/09/22 05:51:02;;;;;;;12.07;8.25;;;;;;;;;;2566914;23;20083;-89
2023/09/22 05:52:03;;;;;;;10.07;7.45;;;;;;;;;;2558875;23;20001;-90
2023/09/22 05:53:04;;;;;;;14.07;7.65;;;;;;;;;;2584219;23;20000;-89
2023/09/22 05:54:06;;;;;;;12.60;8.00;;;;;;;;;;2569154;23;20083;-91
2023/09/22 05:55:06;;;;;;;10.43;7.50;;;;;;;;;;2569321;23;20343;-90
2023/09/22 05:56:08;;;;;;;10.23;7.35;;;;;;;;;;2568852;23;20032;-91
2023/09/22 05:57:09;;;;;;;13.45;8.27;;;;;;;;;;2571195;23;20430;-91
2023/09/22 05:58:10;;;;;;;8.90;7.20;;;;;;;;;;2581394;23;20075;-91
2023/09/22 05:59:11;;;;;;;10.23;7.68;;;;;;;;;;2568616;23;20009;-91
2023/09/22 06:00:16;;;;;;;9.60;7.72;;;;;;;;;;2556354;23;20061;-90
2023/09/22 06:01:17;;;;;;;12.88;7.68;;;;;;;;;;2571090;23;20008;-90
2023/09/22 06:02:19;;;;;;;11.85;8.07;;;;;;;;;;2581281;23;20083;-90
2023/09/22 06:03:20;;;;;;;9.13;7.75;;;;;;;;;;2568675;23;20063;-91